Time;durP1;ratioP1;P1;durP2;ratioP2;P2;SDS_P1;SDS_P2;PMS_P1;PMS_P2;Temp;Humidity;BMP_temperature;BMP_pressure;BME280_temperature;BME280_humidity;BME280_pressure;Samples;Min_cycle;Max_cycle;Signal;HPM_P1;HPM_P2
2021/01/15 00:02:02;;;;;;;7.58;4.08;;;0.90;99.90;;;;;;1919922;74;21052;-69
2021/01/15 00:04:28;;;;;;;6.35;3.92;;;0.90;99.90;;;;;;1933462;74;21147;-70
2021/01/15 00:06:54;;;;;;;10.80;2.92;;;0.90;99.90;;;;;;1946618;73;21132;-70
2021/01/15 00:09:20;;;;;;;3.22;2.70;;;0.90;99.90;;;;;;1941194;73;21161;-71
2021/01/15 00:11:46;;;;;;;5.03;3.40;;;0.90;99.90;;;;;;1933703;73;21075;-69
2021/01/15 00:14:13;;;;;;;5.42;3.52;;;0.90;99.90;;;;;;1940511;73;21216;-70
2021/01/15 00:16:39;;;;;;;4.28;3.00;;;0.90;99.90;;;;;;1933296;73;21117;-70
2021/01/15 00:19:05;;;;;;;5.72;3.80;;;0.90;99.90;;;;;;1940386;73;21435;-70
2021/01/15 00:21:31;;;;;;;5.70;2.70;;;0.90;99.90;;;;;;1937740;73;21551;-69
2021/01/15 00:23:57;;;;;;;4.90;3.80;;;0.90;99.90;;;;;;1958019;73;21058;-70
2021/01/15 00:26:23;;;;;;;5.78;3.15;;;0.90;99.90;;;;;;1940545;73;21184;-68
2021/01/15 00:28:49;;;;;;;3.97;3.13;;;0.90;99.90;;;;;;1937442;73;21066;-70
2021/01/15 00:31:15;;;;;;;5.58;3.22;;;0.80;99.90;;;;;;1941234;73;21126;-72
2021/01/15 00:33:41;;;;;;;5.67;3.02;;;0.80;99.90;;;;;;1938674;73;21066;-69
2021/01/15 00:36:08;;;;;;;5.15;2.90;;;0.80;99.90;;;;;;1950515;73;21036;-72
2021/01/15 00:38:34;;;;;;;5.10;2.62;;;0.80;99.90;;;;;;1920208;74;21076;-72
2021/01/15 00:41:00;;;;;;;4.05;2.80;;;0.80;99.90;;;;;;1902059;74;21141;-69
2021/01/15 00:43:26;;;;;;;4.10;2.67;;;0.90;99.90;;;;;;1899221;74;21134;-69
2021/01/15 00:45:52;;;;;;;3.67;2.30;;;0.80;99.90;;;;;;1905847;75;21060;-69
2021/01/15 00:48:18;;;;;;;2.20;1.92;;;0.80;99.90;;;;;;1899337;74;21100;-69
2021/01/15 00:50:45;;;;;;;2.80;2.37;;;0.80;99.90;;;;;;1887130;76;21054;-69
2021/01/15 00:53:11;;;;;;;2.62;2.30;;;0.80;99.90;;;;;;1904130;74;21163;-69
2021/01/15 00:55:37;;;;;;;4.20;2.00;;;0.80;99.90;;;;;;1905929;75;21064;-69
2021/01/15 00:58:03;;;;;;;3.67;1.92;;;0.80;99.90;;;;;;1899221;74;21123;-69
2021/01/15 01:00:30;;;;;;;2.55;2.02;;;0.90;99.90;;;;;;1884271;74;21484;-69
2021/01/15 01:02:56;;;;;;;2.22;1.70;;;0.90;99.90;;;;;;1904402;74;21084;-69
2021/01/15 01:05:22;;;;;;;2.25;1.72;;;0.80;99.90;;;;;;1902823;74;21060;-69
2021/01/15 01:07:48;;;;;;;3.42;1.87;;;0.90;99.90;;;;;;1904567;74;21041;-70
2021/01/15 01:10:14;;;;;;;3.27;1.90;;;0.80;99.90;;;;;;1901415;74;21067;-68
2021/01/15 01:12:40;;;;;;;3.75;1.72;;;0.80;99.90;;;;;;1898467;74;21130;-68
2021/01/15 01:15:06;;;;;;;10.05;2.35;;;0.80;99.90;;;;;;1894643;74;21141;-69
2021/01/15 01:17:32;;;;;;;6.42;1.87;;;0.70;99.90;;;;;;1888687;74;21108;-70
2021/01/15 01:19:59;;;;;;;5.30;1.52;;;0.80;99.90;;;;;;1939277;73;21071;-70
2021/01/15 01:22:25;;;;;;;2.50;1.40;;;0.80;99.90;;;;;;1922189;74;21063;-70
2021/01/15 01:24:51;;;;;;;1.37;1.27;;;0.80;99.90;;;;;;1920839;74;21140;-70
2021/01/15 01:27:17;;;;;;;2.90;1.80;;;0.80;99.90;;;;;;1920969;74;21078;-69
2021/01/15 01:29:43;;;;;;;2.95;1.47;;;0.80;99.90;;;;;;1922043;74;21083;-69
2021/01/15 01:32:09;;;;;;;1.32;1.22;;;0.80;99.90;;;;;;1922355;74;21103;-69
2021/01/15 01:34:35;;;;;;;1.92;1.10;;;0.80;99.90;;;;;;1888037;73;21063;-69
2021/01/15 01:37:01;;;;;;;3.87;1.27;;;0.80;99.90;;;;;;1886541;74;21045;-69
2021/01/15 01:39:27;;;;;;;2.95;1.40;;;0.70;99.90;;;;;;1900697;74;21075;-68
2021/01/15 01:41:54;;;;;;;2.17;1.35;;;0.70;99.90;;;;;;1906074;74;21174;-69
2021/01/15 01:44:20;;;;;;;5.85;1.30;;;0.70;99.90;;;;;;1890448;74;21456;-68
2021/01/15 01:46:46;;;;;;;1.70;1.25;;;0.70;99.90;;;;;;1906575;74;21430;-69
2021/01/15 01:49:12;;;;;;;1.30;1.20;;;0.70;99.90;;;;;;1895241;74;21061;-70
2021/01/15 01:51:38;;;;;;;1.70;0.88;;;0.70;99.90;;;;;;1906312;74;21150;-70
2021/01/15 01:54:06;;;;;;;1.00;0.90;;;0.70;99.90;;;;;;1939668;73;21083;-70
2021/01/15 01:56:32;;;;;;;1.27;1.12;;;0.70;99.90;;;;;;1919422;74;21491;-70
2021/01/15 01:58:58;;;;;;;1.47;1.17;;;0.70;99.90;;;;;;1921960;75;21443;-70
2021/01/15 02:01:24;;;;;;;2.30;1.15;;;0.60;99.90;;;;;;1922197;74;21503;-70
2021/01/15 02:03:50;;;;;;;2.45;1.15;;;0.60;99.90;;;;;;1919141;74;21144;-71
2021/01/15 02:06:16;;;;;;;4.30;1.77;;;0.60;99.90;;;;;;1907023;74;21040;-70
2021/01/15 02:08:42;;;;;;;1.32;1.07;;;0.60;99.90;;;;;;1906492;74;21071;-70
2021/01/15 02:11:08;;;;;;;2.45;1.05;;;0.60;99.90;;;;;;1900935;74;21200;-70
2021/01/15 02:13:35;;;;;;;1.57;0.95;;;0.50;99.90;;;;;;1897918;74;21068;-69
2021/01/15 02:16:01;;;;;;;3.77;1.10;;;0.50;99.90;;;;;;1906006;75;21167;-70
2021/01/15 02:18:27;;;;;;;1.35;0.90;;;0.50;99.90;;;;;;1899476;74;21158;-70
2021/01/15 02:20:53;;;;;;;1.12;1.02;;;0.50;99.90;;;;;;1900113;74;21134;-70
2021/01/15 02:23:19;;;;;;;1.25;0.95;;;0.40;99.90;;;;;;1892187;74;21042;-71
2021/01/15 02:25:45;;;;;;;0.82;0.82;;;0.40;99.90;;;;;;1905838;74;21191;-69
2021/01/15 02:28:11;;;;;;;0.88;0.88;;;0.40;99.90;;;;;;1902605;74;21260;-70
2021/01/15 02:30:37;;;;;;;1.85;0.80;;;0.50;99.90;;;;;;1899926;74;21467;-70
2021/01/15 02:33:03;;;;;;;2.98;1.10;;;0.40;99.90;;;;;;1901722;74;21574;-69
2021/01/15 02:35:30;;;;;;;0.78;0.78;;;0.40;99.90;;;;;;1892116;74;21499;-71
2021/01/15 02:37:56;;;;;;;0.72;0.72;;;0.40;99.90;;;;;;1901622;74;21154;-70
2021/01/15 02:40:22;;;;;;;0.70;0.70;;;0.30;99.90;;;;;;1939236;73;21062;-70
2021/01/15 02:42:48;;;;;;;3.22;0.80;;;0.20;99.90;;;;;;1921998;74;21051;-69
2021/01/15 02:45:14;;;;;;;1.47;1.20;;;0.20;99.90;;;;;;1918786;74;21184;-69
2021/01/15 02:47:40;;;;;;;1.60;1.25;;;0.10;99.90;;;;;;1919848;73;21050;-70
2021/01/15 02:50:06;;;;;;;1.15;0.78;;;0.10;99.90;;;;;;1940995;73;21186;-70
2021/01/15 02:52:32;;;;;;;0.93;0.93;;;0.10;99.90;;;;;;1941028;73;21067;-69
2021/01/15 02:54:59;;;;;;;3.12;0.80;;;-0.10;99.90;;;;;;1941044;74;21059;-70
2021/01/15 02:57:25;;;;;;;2.40;0.90;;;0.00;99.90;;;;;;1937392;73;21040;-69
2021/01/15 02:59:51;;;;;;;0.80;0.75;;;0.00;99.90;;;;;;1940982;73;21029;-70
2021/01/15 03:02:17;;;;;;;0.90;0.90;;;-0.10;99.90;;;;;;1939941;73;21082;-70
2021/01/15 03:04:43;;;;;;;3.67;1.47;;;-0.10;99.90;;;;;;1939697;73;21130;-70
2021/01/15 03:07:09;;;;;;;0.93;0.93;;;-0.10;99.90;;;;;;1945205;73;21490;-69
2021/01/15 03:09:35;;;;;;;8.98;1.12;;;-0.20;99.90;;;;;;1938155;73;21575;-69
2021/01/15 03:12:01;;;;;;;5.50;1.10;;;-0.20;99.90;;;;;;1925560;73;21552;-70
2021/01/15 03:14:28;;;;;;;0.90;0.72;;;-0.20;99.90;;;;;;1940040;73;21487;-70
2021/01/15 03:16:54;;;;;;;3.02;0.70;;;-0.30;99.90;;;;;;1919433;74;21201;-70
2021/01/15 03:19:20;;;;;;;1.85;0.93;;;-0.40;99.90;;;;;;1922044;75;21074;-69
2021/01/15 03:21:50;;;;;;;0.80;0.80;;;-0.40;99.90;;;;;;1921407;74;21058;-70
2021/01/15 03:24:14;;;;;;;2.00;1.35;;;-0.50;99.90;;;;;;1901259;74;21171;-70
2021/01/15 03:26:40;;;;;;;0.70;0.70;;;-0.60;99.90;;;;;;1900013;74;21170;-70
2021/01/15 03:29:13;;;;;;;0.90;0.90;;;-0.50;99.90;;;;;;1889108;75;21197;-70
2021/01/15 03:31:34;;;;;;;2.27;1.10;;;-0.70;99.90;;;;;;1894701;74;21101;-70
2021/01/15 03:34:01;;;;;;;2.30;0.90;;;-0.70;99.90;;;;;;1895038;74;21129;-71
2021/01/15 03:36:27;;;;;;;1.85;0.80;;;-0.70;99.90;;;;;;1907041;74;21072;-71
2021/01/15 03:38:53;;;;;;;1.32;0.80;;;-0.70;99.90;;;;;;1891628;74;21129;-70
2021/01/15 03:41:19;;;;;;;1.82;1.00;;;-0.70;99.90;;;;;;1894945;74;21080;-69
2021/01/15 03:43:45;;;;;;;0.68;0.68;;;-0.70;99.90;;;;;;1899859;74;21044;-71
2021/01/15 03:46:12;;;;;;;0.90;0.75;;;-0.70;99.90;;;;;;1893329;74;21077;-69
2021/01/15 03:48:38;;;;;;;6.70;1.10;;;-0.60;99.90;;;;;;1902077;74;21067;-70
2021/01/15 03:51:04;;;;;;;1.35;1.05;;;-0.60;99.90;;;;;;1899648;74;21131;-69
2021/01/15 03:53:30;;;;;;;1.62;1.52;;;-0.60;99.90;;;;;;1897341;74;21068;-69
2021/01/15 03:55:57;;;;;;;1.65;1.37;;;-0.60;99.90;;;;;;1902998;74;21057;-70
2021/01/15 03:58:23;;;;;;;1.60;1.50;;;-0.60;99.90;;;;;;1901345;74;21137;-70
2021/01/15 04:00:49;;;;;;;2.62;1.45;;;-0.60;99.90;;;;;;1906208;74;21500;-70
2021/01/15 04:03:15;;;;;;;3.08;1.72;;;-0.70;99.90;;;;;;1881237;73;21136;-70
2021/01/15 04:05:41;;;;;;;2.75;1.70;;;-0.70;99.90;;;;;;1894555;74;21138;-69
2021/01/15 04:08:07;;;;;;;2.67;1.70;;;-0.70;99.90;;;;;;1941878;73;21040;-69
2021/01/15 04:10:33;;;;;;;3.67;1.62;;;-0.70;99.90;;;;;;1934682;73;21161;-69
2021/01/15 04:13:00;;;;;;;3.05;1.90;;;-0.70;99.90;;;;;;1961707;73;21030;-69
2021/01/15 04:15:26;;;;;;;1.27;1.17;;;-0.70;99.90;;;;;;1940757;73;21095;-69
2021/01/15 04:17:52;;;;;;;1.20;1.10;;;-0.70;99.90;;;;;;1941827;73;21071;-69
2021/01/15 04:20:18;;;;;;;1.52;1.10;;;-0.90;99.90;;;;;;1938079;73;21036;-69
2021/01/15 04:22:44;;;;;;;1.65;1.30;;;-0.80;99.90;;;;;;1941959;74;21172;-69
2021/01/15 04:25:10;;;;;;;1.60;1.25;;;-0.90;99.90;;;;;;1946361;73;21066;-70
2021/01/15 04:27:36;;;;;;;11.55;1.55;;;-0.90;99.90;;;;;;1920556;74;21137;-70
2021/01/15 04:30:03;;;;;;;2.60;1.50;;;-0.90;99.90;;;;;;1898703;74;21071;-69
2021/01/15 04:32:30;;;;;;;2.00;1.62;;;-0.90;99.90;;;;;;1907246;74;21057;-70
2021/01/15 04:34:56;;;;;;;1.62;1.00;;;-0.90;99.90;;;;;;1939759;73;21069;-69
2021/01/15 04:37:22;;;;;;;1.75;0.85;;;-0.90;99.90;;;;;;1943023;73;21066;-69
2021/01/15 04:39:48;;;;;;;2.33;0.93;;;-0.90;99.90;;;;;;1921516;75;21080;-69
2021/01/15 04:42:14;;;;;;;0.65;0.65;;;-1.00;99.90;;;;;;1921689;74;21133;-69
2021/01/15 04:44:40;;;;;;;1.85;1.02;;;-1.20;99.90;;;;;;1921119;74;21061;-69
2021/01/15 04:47:07;;;;;;;2.25;1.25;;;-1.20;99.90;;;;;;1921162;74;21140;-69
2021/01/15 04:49:33;;;;;;;1.37;0.95;;;-1.40;99.90;;;;;;1921480;74;21498;-70
2021/01/15 04:51:59;;;;;;;1.35;1.12;;;-1.30;99.90;;;;;;1918511;73;21482;-71
2021/01/15 04:54:25;;;;;;;1.17;1.07;;;-1.30;99.90;;;;;;1921449;74;21498;-70
2021/01/15 04:56:51;;;;;;;1.30;1.20;;;-1.40;99.90;;;;;;1920265;74;21047;-70
2021/01/15 04:59:17;;;;;;;1.15;1.10;;;-1.40;99.90;;;;;;1898033;74;21080;-70
2021/01/15 05:01:43;;;;;;;1.15;1.05;;;-1.40;99.90;;;;;;1879477;73;21067;-69
2021/01/15 05:04:09;;;;;;;2.42;1.42;;;-1.40;99.90;;;;;;1878850;76;21085;-69
2021/01/15 05:06:35;;;;;;;1.37;1.27;;;-1.50;99.90;;;;;;1878687;74;21076;-70
2021/01/15 05:09:02;;;;;;;2.22;1.20;;;-1.40;99.90;;;;;;1903811;75;21045;-70
2021/01/15 05:11:28;;;;;;;1.50;1.40;;;-1.50;99.90;;;;;;1895983;74;21040;-70
2021/01/15 05:13:54;;;;;;;1.42;1.32;;;-1.40;99.90;;;;;;1906496;75;21104;-70
2021/01/15 05:16:20;;;;;;;1.05;0.93;;;-1.60;99.90;;;;;;1891365;74;21076;-69
2021/01/15 05:18:46;;;;;;;1.75;1.30;;;-1.60;99.90;;;;;;1906501;74;21496;-70
2021/01/15 05:21:12;;;;;;;2.22;1.60;;;-1.70;99.90;;;;;;1906511;75;21557;-69
2021/01/15 05:23:38;;;;;;;4.35;1.52;;;-1.60;99.90;;;;;;1906476;74;21547;-70
2021/01/15 05:26:04;;;;;;;3.50;1.35;;;-1.60;99.90;;;;;;1885776;74;21591;-69
2021/01/15 05:28:31;;;;;;;1.12;1.07;;;-1.60;99.90;;;;;;1906838;74;21146;-70
2021/01/15 05:30:57;;;;;;;1.90;1.72;;;-1.60;99.90;;;;;;1891459;74;21060;-70
2021/01/15 05:33:23;;;;;;;1.65;1.55;;;-1.60;99.90;;;;;;1904127;74;21484;-70
2021/01/15 05:35:53;;;;;;;2.00;1.67;;;-1.60;99.90;;;;;;1941795;73;21511;-70
2021/01/15 05:38:19;;;;;;;2.73;1.83;;;-1.60;99.90;;;;;;1941838;73;21055;-71
2021/01/15 05:40:45;;;;;;;2.22;1.75;;;-1.70;99.90;;;;;;1937097;73;21058;-71
2021/01/15 05:43:11;;;;;;;5.83;1.85;;;-1.70;99.90;;;;;;1931893;73;21063;-69
2021/01/15 05:45:37;;;;;;;2.85;2.00;;;-1.70;99.90;;;;;;1938203;73;21071;-69
2021/01/15 05:48:03;;;;;;;2.90;2.08;;;-1.60;99.90;;;;;;1944106;73;21064;-69
2021/01/15 05:50:29;;;;;;;2.35;1.98;;;-1.60;99.90;;;;;;1941946;74;21059;-69
2021/01/15 05:52:56;;;;;;;2.90;2.20;;;-1.50;99.90;;;;;;1940780;73;21079;-69
2021/01/15 05:55:22;;;;;;;1.65;1.42;;;-1.60;99.90;;;;;;1941614;74;21059;-69
2021/01/15 05:57:48;;;;;;;1.90;1.75;;;-1.60;99.90;;;;;;1941783;74;21467;-69
2021/01/15 06:00:14;;;;;;;2.12;1.90;;;-1.60;99.90;;;;;;1937020;73;21198;-70
2021/01/15 06:02:41;;;;;;;5.53;1.95;;;-1.70;99.90;;;;;;1921752;75;21063;-70
2021/01/15 06:05:07;;;;;;;2.08;1.90;;;-1.60;99.90;;;;;;1921640;74;21106;-70
2021/01/15 06:07:33;;;;;;;3.80;2.58;;;-1.60;99.90;;;;;;1918868;74;21136;-70
2021/01/15 06:09:59;;;;;;;4.83;2.10;;;-1.70;99.90;;;;;;1919048;74;21148;-70
2021/01/15 06:12:25;;;;;;;4.30;2.17;;;-1.30;99.90;;;;;;1919034;74;21183;-70
2021/01/15 06:14:58;;;;;;;3.42;2.15;;;-1.50;99.90;;;;;;1919320;74;21078;-69
2021/01/15 06:17:22;;;;;;;;;;;-1.50;99.90;;;;;;1921515;74;21205;-69
2021/01/15 06:19:48;;;;;;;2.17;1.67;;;-1.50;99.90;;;;;;1921895;74;20103;-70
2021/01/15 06:22:14;;;;;;;2.55;2.27;;;-1.50;99.90;;;;;;1920112;74;21082;-70
2021/01/15 06:24:40;;;;;;;2.92;2.22;;;-1.60;99.90;;;;;;1920363;74;21078;-70
2021/01/15 06:27:06;;;;;;;4.70;2.22;;;-1.50;99.90;;;;;;1921308;74;21070;-71
2021/01/15 06:29:32;;;;;;;3.05;2.52;;;-1.60;99.90;;;;;;1921899;74;21047;-70
2021/01/15 06:31:58;;;;;;;3.02;2.27;;;-1.60;99.90;;;;;;1920911;74;21067;-70
2021/01/15 06:34:24;;;;;;;5.00;2.20;;;-1.60;99.90;;;;;;1921474;74;21138;-70
2021/01/15 06:36:51;;;;;;;2.45;2.05;;;-1.60;99.90;;;;;;1919257;74;21156;-70
2021/01/15 06:39:17;;;;;;;7.12;2.55;;;-1.60;99.90;;;;;;1919859;74;21502;-70
2021/01/15 06:41:43;;;;;;;3.10;2.47;;;-1.60;99.90;;;;;;1921293;75;21447;-70
2021/01/15 06:44:09;;;;;;;7.40;2.08;;;-1.50;99.90;;;;;;1921160;74;21490;-70
2021/01/15 06:46:35;;;;;;;4.22;2.30;;;-1.60;99.90;;;;;;1920625;74;21534;-70
2021/01/15 06:49:01;;;;;;;1.82;1.60;;;-1.70;99.90;;;;;;1918734;74;21067;-71
2021/01/15 06:51:27;;;;;;;5.12;3.20;;;-1.70;99.90;;;;;;1922522;75;21036;-74
2021/01/15 06:53:53;;;;;;;3.30;2.00;;;-1.80;99.90;;;;;;1922654;74;21078;-72
2021/01/15 06:56:20;;;;;;;6.62;2.20;;;-1.70;99.90;;;;;;1920294;74;21082;-73
2021/01/15 06:58:46;;;;;;;2.50;2.17;;;-1.90;99.90;;;;;;1921862;74;21152;-74
2021/01/15 07:01:14;;;;;;;3.70;2.70;;;-1.90;99.90;;;;;;1920958;74;21145;-75
2021/01/15 07:03:40;;;;;;;2.92;2.60;;;-1.90;99.90;;;;;;1917755;74;21078;-74
2021/01/15 07:06:06;;;;;;;6.40;2.35;;;-1.90;99.90;;;;;;1921153;74;21087;-72
2021/01/15 07:08:32;;;;;;;2.72;2.40;;;-1.80;99.90;;;;;;1920969;74;21074;-72
2021/01/15 07:10:58;;;;;;;2.58;2.37;;;-1.80;99.90;;;;;;1922423;75;21042;-70
2021/01/15 07:13:24;;;;;;;3.87;2.65;;;-1.80;99.90;;;;;;1919829;74;21140;-71
2021/01/15 07:15:50;;;;;;;4.70;2.30;;;-1.80;99.90;;;;;;1918796;74;21044;-70
2021/01/15 07:18:16;;;;;;;2.60;2.07;;;-1.80;99.90;;;;;;1918595;74;21066;-71
2021/01/15 07:20:42;;;;;;;3.00;2.40;;;-1.80;99.90;;;;;;1922578;75;21064;-71
2021/01/15 07:23:08;;;;;;;3.33;2.42;;;-1.70;99.90;;;;;;1921668;74;21104;-71
2021/01/15 07:25:35;;;;;;;4.78;2.85;;;-1.80;99.90;;;;;;1922657;74;21184;-70
2021/01/15 07:28:01;;;;;;;4.10;3.40;;;-1.80;99.90;;;;;;1921265;74;21141;-71
2021/01/15 07:30:27;;;;;;;4.50;3.08;;;-1.80;99.90;;;;;;1920508;74;21078;-71
2021/01/15 07:32:53;;;;;;;4.62;2.83;;;-1.80;99.90;;;;;;1920365;75;21128;-71
2021/01/15 07:35:19;;;;;;;4.67;3.00;;;-1.70;99.90;;;;;;1922433;75;21144;-71
2021/01/15 07:37:45;;;;;;;5.37;2.70;;;-1.70;99.90;;;;;;1920848;74;21153;-71
2021/01/15 07:40:14;;;;;;;4.78;3.37;;;-1.70;99.90;;;;;;1919459;74;21070;-71
2021/01/15 07:42:39;;;;;;;5.83;3.42;;;-1.70;99.90;;;;;;1922480;75;21091;-70
2021/01/15 07:45:05;;;;;;;4.35;3.30;;;-1.70;99.90;;;;;;1923057;74;21047;-72
2021/01/15 07:47:37;;;;;;;4.87;3.37;;;-1.60;99.90;;;;;;1922669;74;21170;-71
2021/01/15 07:49:59;;;;;;;4.58;3.12;;;-1.60;99.90;;;;;;1912797;74;21111;-70
2021/01/15 07:52:25;;;;;;;10.90;3.67;;;-1.60;99.90;;;;;;1922665;75;21091;-71
2021/01/15 07:54:58;;;;;;;5.60;4.33;;;-1.60;99.90;;;;;;1920199;74;21071;-70
2021/01/15 07:57:24;;;;;;;5.03;3.52;;;-1.60;99.90;;;;;;1921662;74;21173;-71
2021/01/15 07:59:50;;;;;;;5.17;3.15;;;-1.50;99.90;;;;;;1926452;73;21044;-70
2021/01/15 08:02:16;;;;;;;6.00;3.47;;;-1.50;99.90;;;;;;1937853;73;21063;-74
2021/01/15 08:04:42;;;;;;;7.85;3.77;;;-1.50;99.90;;;;;;1935869;73;21062;-70
2021/01/15 08:07:08;;;;;;;4.28;2.77;;;-1.50;99.90;;;;;;1920716;74;21148;-73
2021/01/15 08:09:34;;;;;;;5.65;3.60;;;-1.30;99.90;;;;;;1936860;73;21091;-79
2021/01/15 08:12:01;;;;;;;9.38;3.98;;;-1.30;99.90;;;;;;1940551;73;21059;-78
2021/01/15 08:14:27;;;;;;;5.65;3.62;;;-1.30;99.90;;;;;;1921953;74;21527;-75
2021/01/15 08:16:53;;;;;;;6.58;3.22;;;-1.20;99.90;;;;;;1921061;74;21552;-76
2021/01/15 08:19:21;;;;;;;4.85;3.22;;;-1.10;99.90;;;;;;1919750;74;21471;-77
2021/01/15 08:21:47;;;;;;;5.42;3.55;;;-1.00;99.90;;;;;;1919893;73;21094;-77
2021/01/15 08:24:18;;;;;;;5.22;3.65;;;-1.00;99.90;;;;;;1916904;74;21728;-76
2021/01/15 08:26:41;;;;;;;6.92;3.85;;;-1.00;99.90;;;;;;1918874;74;21103;-75
2021/01/15 08:29:07;;;;;;;5.70;3.90;;;-0.90;99.90;;;;;;1917920;74;21145;-75
2021/01/15 08:31:33;;;;;;;4.50;3.47;;;-0.90;99.90;;;;;;1885210;74;21078;-75
2021/01/15 08:33:59;;;;;;;5.70;3.72;;;-0.90;99.90;;;;;;1896946;74;21581;-77
2021/01/15 08:36:25;;;;;;;5.33;3.83;;;-0.70;99.90;;;;;;1899131;75;21456;-76
2021/01/15 08:38:51;;;;;;;4.40;3.37;;;-0.60;99.90;;;;;;1900328;74;21500;-75
2021/01/15 08:41:24;;;;;;;10.65;4.35;;;-0.70;99.90;;;;;;1893687;74;21518;-75
2021/01/15 08:43:50;;;;;;;8.55;4.08;;;-0.70;99.90;;;;;;1903780;74;21080;-75
2021/01/15 08:46:17;;;;;;;6.28;3.45;;;-0.70;99.90;;;;;;1892486;74;21078;-76
2021/01/15 08:48:43;;;;;;;6.12;3.70;;;-0.60;99.90;;;;;;1884903;74;21077;-75
2021/01/15 08:51:10;;;;;;;5.35;3.77;;;-0.60;99.90;;;;;;1928358;73;21498;-75
2021/01/15 08:56:21;;;;;;;4.58;3.55;;;-0.30;99.90;;;;;;1938190;73;21046;-77
2021/01/15 08:58:47;;;;;;;7.55;4.17;;;-0.10;99.90;;;;;;1937886;73;21120;-75
2021/01/15 09:01:13;;;;;;;7.55;3.80;;;0.10;99.90;;;;;;1941529;73;21092;-74
2021/01/15 09:03:42;;;;;;;6.33;3.70;;;0.30;99.90;;;;;;1943939;73;21114;-77
2021/01/15 09:06:08;;;;;;;8.75;3.80;;;0.50;99.90;;;;;;1941647;73;21443;-75
2021/01/15 09:08:34;;;;;;;6.30;3.60;;;0.60;99.90;;;;;;1937977;73;21581;-77
2021/01/15 09:11:01;;;;;;;8.83;3.75;;;0.80;99.90;;;;;;1921593;74;21063;-79
2021/01/15 09:13:27;;;;;;;6.30;4.20;;;0.90;99.90;;;;;;1884290;74;21117;-75
2021/01/15 09:15:56;;;;;;;6.97;3.83;;;1.00;99.90;;;;;;1904714;74;21571;-78
2021/01/15 09:18:22;;;;;;;6.95;4.00;;;1.10;99.90;;;;;;1941830;74;21124;-80
2021/01/15 09:20:48;;;;;;;8.23;3.80;;;1.40;99.90;;;;;;1932437;73;21065;-78
2021/01/15 09:23:14;;;;;;;6.15;3.55;;;1.60;99.90;;;;;;1941066;73;21100;-75
2021/01/15 09:25:40;;;;;;;5.62;3.33;;;2.10;99.90;;;;;;1920283;74;21055;-75
2021/01/15 09:28:06;;;;;;;5.17;3.27;;;2.20;99.90;;;;;;1925180;73;21052;-77
2021/01/15 09:30:32;;;;;;;6.60;3.20;;;2.10;99.90;;;;;;1941691;74;21122;-76
2021/01/15 09:32:59;;;;;;;5.75;3.55;;;2.40;99.90;;;;;;1941262;73;21147;-75
2021/01/15 09:35:25;;;;;;;4.95;3.25;;;2.80;99.90;;;;;;1919332;74;21188;-83
2021/01/15 09:37:51;;;;;;;5.28;3.25;;;2.50;99.90;;;;;;1917798;74;21075;-76
2021/01/15 09:40:17;;;;;;;6.60;3.15;;;2.90;99.90;;;;;;1942500;73;21040;-76
2021/01/15 09:42:43;;;;;;;8.98;3.42;;;3.30;99.90;;;;;;1928391;73;21043;-76
2021/01/15 09:45:09;;;;;;;3.42;2.98;;;3.20;99.90;;;;;;1955316;73;21055;-81
2021/01/15 09:47:42;;;;;;;7.10;3.15;;;2.60;99.90;;;;;;1920678;74;21079;-79
2021/01/15 09:50:03;;;;;;;4.67;3.25;;;2.50;99.90;;;;;;1903506;74;21271;-76
2021/01/15 09:52:31;;;;;;;4.37;2.90;;;2.80;99.90;;;;;;1893502;74;21072;-76
2021/01/15 09:54:57;;;;;;;4.95;2.87;;;3.20;99.90;;;;;;1906429;74;21443;-76
2021/01/15 09:57:23;;;;;;;16.95;3.72;;;3.20;99.90;;;;;;1906422;74;21162;-77
2021/01/15 09:59:50;;;;;;;13.20;2.92;;;3.30;99.90;;;;;;1891605;73;21067;-79
2021/01/15 10:02:16;;;;;;;5.42;3.35;;;3.30;99.90;;;;;;1886167;74;21073;-79
2021/01/15 10:04:42;;;;;;;5.65;3.05;;;3.50;99.90;;;;;;1941752;73;21117;-74
2021/01/15 10:07:08;;;;;;;5.50;3.05;;;2.80;99.90;;;;;;1937373;73;21144;-75
2021/01/15 10:09:36;;;;;;;8.88;3.35;;;2.80;99.90;;;;;;1920733;74;21074;-79
2021/01/15 10:12:02;;;;;;;12.00;4.62;;;2.60;99.90;;;;;;1920022;74;21097;-74
2021/01/15 10:14:28;;;;;;;5.62;3.02;;;2.60;99.90;;;;;;1921436;74;21031;-75
2021/01/15 10:16:54;;;;;;;6.53;3.08;;;2.40;99.90;;;;;;1939559;72;21090;-73
2021/01/15 10:19:21;;;;;;;9.83;2.70;;;2.60;99.90;;;;;;1947590;73;21148;-72
2021/01/15 10:21:47;;;;;;;14.83;3.08;;;2.80;99.90;;;;;;1947903;73;21019;-74
2021/01/15 10:24:13;;;;;;;5.37;3.05;;;2.90;99.90;;;;;;1942557;73;21044;-73
2021/01/15 10:26:39;;;;;;;6.80;3.33;;;2.70;99.90;;;;;;1922272;74;21435;-75
2021/01/15 10:29:09;;;;;;;4.83;3.35;;;2.50;99.90;;;;;;1924367;74;21240;-71
2021/01/15 10:31:33;;;;;;;7.42;2.85;;;2.80;99.90;;;;;;1923519;75;21166;-74
2021/01/15 10:33:59;;;;;;;6.12;3.20;;;3.60;99.90;;;;;;1919104;74;21140;-73
2021/01/15 10:36:25;;;;;;;7.47;3.40;;;3.40;99.90;;;;;;1922132;73;21598;-73
2021/01/15 10:38:51;;;;;;;4.35;3.25;;;2.70;99.90;;;;;;1920132;74;21518;-75
2021/01/15 10:41:17;;;;;;;6.47;3.55;;;3.60;99.90;;;;;;1922145;74;21455;-75
2021/01/15 10:43:44;;;;;;;11.70;3.92;;;4.10;99.90;;;;;;1922145;74;21047;-75
2021/01/15 10:46:10;;;;;;;6.67;3.17;;;4.70;99.90;;;;;;1919356;74;21075;-74
2021/01/15 10:48:36;;;;;;;4.05;3.02;;;4.60;99.90;;;;;;1939507;74;21059;-75
2021/01/15 10:51:02;;;;;;;4.08;2.60;;;4.50;99.90;;;;;;1941203;73;21102;-75
2021/01/15 10:53:28;;;;;;;5.53;3.05;;;5.20;99.90;;;;;;1943485;73;21075;-75
2021/01/15 10:55:55;;;;;;;4.65;2.92;;;4.20;99.90;;;;;;1937600;73;21082;-75
2021/01/15 10:58:21;;;;;;;7.10;3.05;;;3.90;99.90;;;;;;1941251;73;21071;-75
2021/01/15 11:00:48;;;;;;;5.47;3.05;;;4.20;99.90;;;;;;1946553;73;21150;-75
2021/01/15 11:03:14;;;;;;;3.47;2.87;;;4.40;99.90;;;;;;1939548;73;21039;-75
2021/01/15 11:05:40;;;;;;;6.65;3.05;;;5.00;99.90;;;;;;1916702;74;21158;-75
2021/01/15 11:08:06;;;;;;;4.58;2.92;;;5.30;99.90;;;;;;1920546;75;21505;-75
2021/01/15 11:10:32;;;;;;;4.20;3.00;;;5.00;99.90;;;;;;1918366;74;21219;-75
2021/01/15 11:12:58;;;;;;;4.87;2.77;;;4.90;99.90;;;;;;1912234;74;21134;-75
2021/01/15 11:15:24;;;;;;;6.50;3.05;;;4.80;99.90;;;;;;1904053;74;21089;-75
2021/01/15 11:17:50;;;;;;;4.22;2.65;;;5.00;99.90;;;;;;1902641;74;21246;-75
2021/01/15 11:20:17;;;;;;;4.33;2.45;;;5.40;99.90;;;;;;1886236;74;21057;-76
2021/01/15 11:22:44;;;;;;;3.72;2.83;;;5.90;99.90;;;;;;1935085;73;21047;-75
2021/01/15 11:25:10;;;;;;;5.45;3.10;;;5.60;99.90;;;;;;1931657;74;21065;-75
2021/01/15 11:27:36;;;;;;;6.40;3.20;;;5.90;99.90;;;;;;1905909;74;21085;-76
2021/01/15 11:30:03;;;;;;;4.03;2.20;;;5.50;99.90;;;;;;1941756;73;21070;-75
2021/01/15 11:32:29;;;;;;;5.30;2.75;;;5.60;99.90;;;;;;1949626;73;21062;-77
2021/01/15 11:34:55;;;;;;;5.78;2.60;;;5.60;99.90;;;;;;1917788;74;21285;-77
2021/01/15 11:37:22;;;;;;;5.35;2.80;;;6.20;99.90;;;;;;1910414;74;21482;-76
2021/01/15 11:39:49;;;;;;;4.15;2.83;;;6.20;99.90;;;;;;1893536;74;21142;-78
2021/01/15 11:42:15;;;;;;;3.35;2.42;;;6.20;99.90;;;;;;1889364;74;21079;-72
2021/01/15 11:44:41;;;;;;;3.80;2.40;;;6.60;99.90;;;;;;1904014;74;21160;-73
2021/01/15 11:47:07;;;;;;;2.80;2.17;;;6.40;99.90;;;;;;1947961;73;21087;-72
2021/01/15 11:49:33;;;;;;;5.67;2.62;;;5.50;99.90;;;;;;1929995;73;21517;-72
2021/01/15 11:51:59;;;;;;;4.42;2.45;;;5.00;99.90;;;;;;1939462;73;21556;-73
2021/01/15 11:54:25;;;;;;;5.67;2.67;;;5.40;99.90;;;;;;1933173;73;21491;-73
2021/01/15 11:56:52;;;;;;;7.65;3.37;;;5.00;99.90;;;;;;1941108;74;21063;-73
2021/01/15 11:59:18;;;;;;;4.97;2.50;;;5.10;99.90;;;;;;1937230;73;21048;-75
2021/01/15 12:01:44;;;;;;;4.05;2.55;;;5.90;99.90;;;;;;1949013;73;21144;-72
2021/01/15 12:04:10;;;;;;;8.35;3.62;;;5.90;99.90;;;;;;1941332;73;21059;-74
2021/01/15 12:06:36;;;;;;;4.72;2.80;;;6.80;99.90;;;;;;1919842;75;21120;-72
2021/01/15 12:09:03;;;;;;;5.83;3.27;;;7.00;99.90;;;;;;1920985;74;21156;-73
2021/01/15 12:11:30;;;;;;;3.98;2.58;;;6.40;99.90;;;;;;1922026;74;21138;-75
2021/01/15 12:13:56;;;;;;;7.50;2.90;;;6.80;99.90;;;;;;1919305;74;21188;-75
2021/01/15 12:16:22;;;;;;;4.47;3.08;;;7.20;99.90;;;;;;1921827;75;21039;-75
2021/01/15 12:18:48;;;;;;;4.67;2.85;;;6.20;99.90;;;;;;1920900;74;21509;-75
2021/01/15 12:21:14;;;;;;;6.72;2.98;;;6.20;99.90;;;;;;1922007;74;21509;-76
2021/01/15 12:23:40;;;;;;;11.10;2.98;;;6.50;99.90;;;;;;1919830;74;21647;-76
2021/01/15 12:26:06;;;;;;;4.62;2.60;;;7.20;99.90;;;;;;1931920;73;21553;-75
2021/01/15 12:28:33;;;;;;;4.45;2.65;;;7.20;99.90;;;;;;1918469;74;21140;-78
2021/01/15 12:30:59;;;;;;;5.08;2.52;;;7.00;99.90;;;;;;1889764;74;21063;-75
2021/01/15 12:33:25;;;;;;;9.85;2.77;;;7.40;99.90;;;;;;1902633;74;21089;-74
2021/01/15 12:35:51;;;;;;;4.97;3.10;;;7.30;99.90;;;;;;1905724;75;21064;-75
2021/01/15 12:38:17;;;;;;;4.78;2.70;;;6.60;99.90;;;;;;1901716;74;21508;-74
2021/01/15 12:40:44;;;;;;;3.52;2.75;;;6.70;99.90;;;;;;1889217;74;21041;-75
2021/01/15 12:43:12;;;;;;;3.17;2.30;;;6.60;99.90;;;;;;1887589;74;21473;-74
2021/01/15 12:45:39;;;;;;;4.97;3.27;;;7.10;99.90;;;;;;1900214;75;21145;-76
2021/01/15 12:48:05;;;;;;;6.80;3.70;;;7.30;99.90;;;;;;1906740;74;21146;-75
2021/01/15 12:50:31;;;;;;;4.80;3.05;;;6.70;99.90;;;;;;1941537;74;21113;-74